Terminal Aerodrome Forecast
Issued by NWS

Home | Current Version | Previous Version | Text Only | Print | Product List | Glossary On
Versions: 1 2 3 4 5 6 7 8 9 10 11 12 13 14 15
000
FTUS45 KTFX 061743
TAFLWT
TAF
KLWT 061743Z 0618/0718 29005KT P6SM VCSH BKN004
     FM062200 02008KT P6SM VCSH BKN015
     FM070000 06008KT P6SM SCT015 BKN060
     FM071000 VRB05KT P6SM SKC=

USA.gov is the U.S. government's official web portal to all federal, state and local government web resources and services.